createdAt,value
2019-06-27T00:00:44.681Z,20.20
2019-06-27T00:01:30.973Z,20.20
2019-06-27T00:02:17.544Z,20.20
2019-06-27T00:03:04.213Z,20.10
2019-06-27T00:03:51.061Z,20.10
2019-06-27T00:04:37.724Z,20.10
2019-06-27T00:05:24.722Z,20.10
2019-06-27T00:06:15.857Z,20.10
2019-06-27T00:07:02.165Z,20.00
2019-06-27T00:07:48.270Z,20.00
2019-06-27T00:08:35.142Z,20.00
2019-06-27T00:09:23.197Z,20.00
2019-06-27T00:10:09.787Z,20.00
2019-06-27T00:10:55.968Z,20.00
2019-06-27T00:11:42.289Z,19.90
2019-06-27T00:12:29.108Z,20.00
2019-06-27T00:13:15.235Z,19.90
2019-06-27T00:14:01.970Z,19.90
2019-06-27T00:14:48.056Z,19.90
2019-06-27T00:15:34.606Z,19.80
2019-06-27T00:16:20.892Z,19.80
2019-06-27T00:17:07.209Z,19.80
2019-06-27T00:17:53.468Z,19.80
2019-06-27T00:18:40.925Z,19.80
2019-06-27T00:19:27.187Z,19.80
2019-06-27T00:20:13.920Z,19.70
2019-06-27T00:20:59.928Z,19.60
2019-06-27T00:21:45.731Z,19.60
2019-06-27T00:22:32.007Z,19.60
2019-06-27T00:23:17.936Z,19.50
2019-06-27T00:24:04.384Z,19.60
2019-06-27T00:24:50.996Z,19.60
2019-06-27T00:25:37.921Z,19.60
2019-06-27T00:26:24.161Z,19.60
2019-06-27T00:27:09.964Z,19.50
2019-06-27T00:27:56.377Z,19.50
2019-06-27T00:28:42.316Z,19.40
2019-06-27T00:29:28.629Z,19.40
2019-06-27T00:30:14.625Z,19.40
2019-06-27T00:31:00.993Z,19.40
2019-06-27T00:31:47.347Z,19.40
2019-06-27T00:32:33.291Z,19.30
2019-06-27T00:33:19.864Z,19.40
2019-06-27T00:34:07.100Z,19.30
2019-06-27T00:34:53.444Z,19.30
2019-06-27T00:35:39.514Z,19.30
2019-06-27T00:36:26.117Z,19.30
2019-06-27T00:37:12.561Z,19.20
2019-06-27T00:38:01.505Z,19.10
2019-06-27T00:38:48.038Z,19.10
2019-06-27T00:39:34.466Z,19.10
2019-06-27T00:40:20.674Z,19.20
2019-06-27T00:41:07.038Z,19.10
2019-06-27T00:41:53.412Z,19.10
2019-06-27T00:42:39.872Z,19.10
2019-06-27T00:43:27.353Z,19.20
2019-06-27T00:44:13.713Z,19.10
2019-06-27T00:44:59.769Z,19.10
2019-06-27T00:45:45.894Z,19.00
2019-06-27T00:46:32.369Z,19.00
2019-06-27T00:47:20.127Z,19.00
2019-06-27T00:48:06.501Z,19.00
2019-06-27T00:48:52.673Z,19.00
2019-06-27T00:49:38.735Z,19.00
2019-06-27T00:50:25.401Z,19.00
2019-06-27T00:51:12.689Z,19.00
2019-06-27T00:51:58.763Z,19.00
2019-06-27T00:52:44.568Z,18.90
2019-06-27T00:53:30.909Z,18.90
2019-06-27T00:54:17.179Z,18.90
2019-06-27T00:55:03.841Z,18.90
2019-06-27T00:55:49.884Z,18.90
2019-06-27T00:56:36.173Z,18.90
2019-06-27T00:57:22.793Z,18.90
2019-06-27T00:58:09.231Z,18.80
2019-06-27T00:58:55.726Z,18.80
2019-06-27T00:59:41.646Z,18.70
2019-06-27T01:00:28.164Z,18.70
2019-06-27T01:01:14.682Z,18.70
2019-06-27T01:02:00.509Z,18.70
2019-06-27T01:02:46.969Z,18.70
2019-06-27T01:03:32.939Z,18.60
2019-06-27T01:04:18.886Z,18.60
2019-06-27T01:05:05.172Z,18.50
2019-06-27T01:05:51.484Z,18.60
2019-06-27T01:06:37.568Z,18.60
2019-06-27T01:07:23.515Z,18.50
2019-06-27T01:08:09.873Z,18.50
2019-06-27T01:08:56.360Z,18.50
2019-06-27T01:09:42.549Z,18.50
2019-06-27T01:10:28.439Z,18.50
2019-06-27T01:11:14.328Z,18.50
2019-06-27T01:12:00.697Z,18.40
2019-06-27T01:12:47.203Z,18.30
2019-06-27T01:13:33.266Z,18.30
2019-06-27T01:14:19.653Z,18.30
2019-06-27T01:15:06.803Z,18.30
2019-06-27T01:15:52.891Z,18.20
2019-06-27T01:16:39.160Z,18.20
2019-06-27T01:17:25.624Z,18.20
2019-06-27T01:18:11.576Z,18.20
2019-06-27T01:18:57.477Z,18.30
2019-06-27T01:19:43.284Z,18.30
2019-06-27T01:20:29.128Z,18.30
2019-06-27T01:21:15.146Z,18.30
2019-06-27T01:22:01.150Z,18.30
2019-06-27T01:22:47.586Z,18.30
2019-06-27T01:23:34.152Z,18.30
2019-06-27T01:24:20.184Z,18.30
2019-06-27T01:25:06.725Z,18.30
2019-06-27T01:25:52.912Z,18.20
2019-06-27T01:26:39.378Z,18.20
2019-06-27T01:27:30.058Z,18.10
2019-06-27T01:28:13.593Z,18.10
2019-06-27T01:28:59.422Z,18.00
2019-06-27T01:29:45.385Z,17.90
2019-06-27T01:30:31.707Z,18.00
2019-06-27T01:31:17.667Z,18.10
2019-06-27T01:32:04.992Z,18.00
2019-06-27T01:32:51.256Z,18.00
2019-06-27T01:33:37.029Z,18.00
2019-06-27T01:34:22.884Z,18.00
2019-06-27T01:35:09.200Z,18.00
2019-06-27T01:35:55.050Z,18.00
2019-06-27T01:36:41.305Z,18.00
2019-06-27T01:37:27.201Z,18.00
2019-06-27T01:38:13.152Z,17.90
2019-06-27T01:38:59.091Z,17.90
2019-06-27T01:39:45.572Z,17.90
2019-06-27T01:40:32.762Z,17.90
2019-06-27T01:41:19.073Z,18.00
2019-06-27T01:42:06.071Z,18.00
2019-06-27T01:42:51.972Z,17.90
2019-06-27T01:43:37.981Z,17.90
2019-06-27T01:44:48.163Z,17.90
2019-06-27T01:45:45.338Z,17.90
2019-06-27T01:46:31.445Z,17.90
2019-06-27T01:47:19.018Z,17.90
2019-06-27T01:48:06.728Z,17.90
2019-06-27T01:48:54.095Z,17.80
2019-06-27T01:49:40.356Z,17.80
2019-06-27T01:50:26.215Z,17.80
2019-06-27T01:51:12.143Z,17.80
2019-06-27T01:51:58.187Z,17.80
2019-06-27T01:52:44.380Z,17.80
2019-06-27T01:53:30.389Z,17.80
2019-06-27T01:54:17.933Z,17.80
2019-06-27T01:55:05.275Z,17.80
2019-06-27T01:55:51.304Z,17.80
2019-06-27T01:56:37.317Z,17.70
2019-06-27T01:57:23.231Z,17.70
2019-06-27T01:58:09.049Z,17.70
2019-06-27T01:58:55.928Z,17.70
2019-06-27T01:59:42.128Z,17.70
2019-06-27T02:00:28.062Z,17.70
2019-06-27T02:01:14.401Z,17.70
2019-06-27T02:02:00.335Z,17.60
2019-06-27T02:02:47.822Z,17.60
2019-06-27T02:03:33.899Z,17.60
2019-06-27T02:04:20.188Z,17.70
2019-06-27T02:05:06.264Z,17.60
2019-06-27T02:05:52.364Z,17.60
2019-06-27T02:06:38.613Z,17.60
2019-06-27T02:07:25.060Z,17.60
2019-06-27T02:08:11.464Z,17.60
2019-06-27T02:08:57.342Z,17.60
2019-06-27T02:09:43.745Z,17.60
2019-06-27T02:10:30.100Z,17.60
2019-06-27T02:11:16.060Z,17.50
2019-06-27T02:12:02.100Z,17.50
2019-06-27T02:12:48.631Z,17.50
2019-06-27T02:13:34.936Z,17.50
2019-06-27T02:14:21.561Z,17.60
2019-06-27T02:15:08.996Z,17.50
2019-06-27T02:15:55.439Z,17.50
2019-06-27T02:16:43.046Z,17.50
2019-06-27T02:17:29.386Z,17.50
2019-06-27T02:18:15.706Z,17.50
2019-06-27T02:19:01.953Z,17.50
2019-06-27T02:19:48.536Z,17.40
2019-06-27T02:20:36.503Z,17.40
2019-06-27T02:21:22.864Z,17.40
2019-06-27T02:22:10.584Z,17.40
2019-06-27T02:22:56.999Z,17.40
2019-06-27T02:23:43.477Z,17.40
2019-06-27T02:24:30.048Z,17.40
2019-06-27T02:25:16.932Z,17.30
2019-06-27T02:26:05.002Z,17.30
2019-06-27T02:26:51.236Z,17.30
2019-06-27T02:27:37.533Z,17.30
2019-06-27T02:33:53.387Z,17.30
2019-06-27T02:36:19.737Z,17.30
2019-06-27T02:37:06.165Z,17.20
2019-06-27T02:37:52.473Z,17.20
2019-06-27T02:38:38.892Z,17.20
2019-06-27T02:39:24.845Z,17.20
2019-06-27T02:40:10.704Z,17.20
2019-06-27T02:40:58.920Z,17.20
2019-06-27T02:41:45.571Z,17.20
2019-06-27T02:42:31.637Z,17.20
2019-06-27T02:43:17.952Z,17.20
2019-06-27T02:44:07.068Z,17.20
2019-06-27T02:44:53.244Z,17.20
2019-06-27T02:45:39.114Z,17.20
2019-06-27T02:46:25.030Z,17.20
2019-06-27T02:47:11.030Z,17.20
2019-06-27T02:47:57.507Z,17.20
2019-06-27T02:48:44.049Z,17.20
2019-06-27T02:49:30.496Z,17.10
2019-06-27T02:50:17.131Z,17.10
2019-06-27T02:51:03.697Z,17.10
2019-06-27T02:51:52.847Z,17.00
2019-06-27T02:52:39.105Z,17.00
2019-06-27T02:53:25.171Z,17.00
2019-06-27T02:54:11.677Z,17.00
2019-06-27T02:54:57.994Z,17.00
2019-06-27T02:55:44.498Z,16.90
2019-06-27T02:56:31.021Z,17.00
2019-06-27T02:57:17.421Z,17.00
2019-06-27T02:58:26.856Z,16.90
2019-06-27T02:58:52.277Z,16.90
2019-06-27T02:59:38.572Z,16.90
2019-06-27T03:00:24.464Z,17.00
2019-06-27T03:01:10.992Z,16.90
2019-06-27T03:02:00.208Z,16.90
2019-06-27T03:02:46.845Z,17.00
2019-06-27T03:03:39.351Z,17.00
2019-06-27T03:04:25.502Z,17.00
2019-06-27T03:05:12.479Z,16.90
2019-06-27T03:05:58.335Z,17.00
2019-06-27T03:06:44.713Z,17.00
2019-06-27T03:07:30.575Z,17.10
2019-06-27T03:08:18.979Z,17.00
2019-06-27T03:09:05.703Z,17.00
2019-06-27T03:09:52.007Z,17.00
2019-06-27T03:10:38.460Z,17.00
2019-06-27T03:11:24.950Z,16.90
2019-06-27T03:12:11.442Z,17.00
2019-06-27T03:12:58.676Z,17.00
2019-06-27T03:13:45.073Z,17.00
2019-06-27T03:14:31.186Z,17.00
2019-06-27T03:15:17.743Z,17.00
2019-06-27T03:16:04.368Z,17.00
2019-06-27T03:16:50.889Z,17.10
2019-06-27T03:17:37.433Z,17.10
2019-06-27T03:18:23.888Z,17.10
2019-06-27T03:19:10.282Z,17.10
2019-06-27T03:19:56.289Z,17.10
2019-06-27T03:20:42.592Z,17.10
2019-06-27T03:21:29.014Z,17.10
2019-06-27T03:22:15.360Z,17.20
2019-06-27T03:23:01.446Z,17.20
2019-06-27T03:23:47.442Z,17.20
2019-06-27T03:24:33.864Z,17.10
2019-06-27T03:25:20.325Z,17.20
2019-06-27T03:26:07.830Z,17.20
2019-06-27T03:26:53.860Z,17.20
2019-06-27T03:27:40.998Z,17.20
2019-06-27T03:28:45.049Z,17.20
2019-06-27T03:29:19.001Z,17.20
2019-06-27T03:30:03.868Z,17.20
2019-06-27T03:30:49.905Z,17.20
2019-06-27T03:31:39.406Z,17.20
2019-06-27T03:32:25.454Z,17.30
2019-06-27T03:33:11.585Z,17.30
2019-06-27T03:33:57.878Z,17.30
2019-06-27T03:34:44.247Z,17.30
2019-06-27T03:35:30.377Z,17.30
2019-06-27T03:36:16.742Z,17.30
2019-06-27T03:37:03.039Z,17.20
2019-06-27T03:37:48.949Z,17.20
2019-06-27T03:38:35.291Z,17.20
2019-06-27T03:39:21.705Z,17.20
2019-06-27T03:40:08.419Z,17.20
2019-06-27T03:40:54.401Z,17.20
2019-06-27T03:41:40.658Z,17.20
2019-06-27T03:42:28.286Z,17.20
2019-06-27T03:43:14.400Z,17.20
2019-06-27T03:44:01.443Z,17.20
2019-06-27T03:44:47.693Z,17.30
2019-06-27T03:45:34.010Z,17.30
2019-06-27T03:46:22.460Z,17.30
2019-06-27T03:47:09.739Z,17.30
2019-06-27T03:47:55.750Z,17.20
2019-06-27T03:48:42.185Z,17.20
2019-06-27T03:49:28.593Z,17.20
2019-06-27T03:50:14.897Z,17.20
2019-06-27T03:51:01.265Z,17.20
2019-06-27T03:51:47.638Z,17.30
2019-06-27T03:52:34.073Z,17.30
2019-06-27T03:53:20.569Z,17.30
2019-06-27T03:54:07.030Z,17.20
2019-06-27T03:54:53.035Z,17.30
2019-06-27T03:55:39.068Z,17.30
2019-06-27T03:56:25.210Z,17.30
2019-06-27T03:57:11.117Z,17.30
2019-06-27T03:57:57.588Z,17.30
2019-06-27T03:58:43.393Z,17.30
2019-06-27T03:59:29.180Z,17.30
2019-06-27T04:00:22.759Z,17.40
2019-06-27T04:01:08.907Z,17.30
2019-06-27T04:01:54.967Z,17.30
2019-06-27T04:02:41.086Z,17.40
2019-06-27T04:03:27.649Z,17.40
2019-06-27T04:04:14.241Z,17.40
2019-06-27T04:05:00.750Z,17.40
2019-06-27T04:05:46.700Z,17.40
2019-06-27T04:06:32.724Z,17.40
2019-06-27T04:07:18.944Z,17.40
2019-06-27T04:08:06.306Z,17.40
2019-06-27T04:08:52.381Z,17.40
2019-06-27T04:09:38.726Z,17.50
2019-06-27T04:10:25.085Z,17.40
2019-06-27T04:11:11.070Z,17.40
2019-06-27T04:11:57.544Z,17.40
2019-06-27T04:12:43.748Z,17.40
2019-06-27T04:13:29.845Z,17.30
2019-06-27T04:14:16.479Z,17.40
2019-06-27T04:15:02.625Z,17.40
2019-06-27T04:15:48.901Z,17.30
2019-06-27T04:16:37.908Z,17.40
2019-06-27T04:17:24.106Z,17.40
2019-06-27T04:18:10.659Z,17.40
2019-06-27T04:18:56.497Z,17.40
2019-06-27T04:19:42.292Z,17.40
2019-06-27T04:20:28.202Z,17.40
2019-06-27T04:21:15.900Z,17.40
2019-06-27T04:22:02.009Z,17.40
2019-06-27T04:22:48.056Z,17.30
2019-06-27T04:23:34.757Z,17.30
2019-06-27T04:24:20.997Z,17.30
2019-06-27T04:25:07.414Z,17.40
2019-06-27T04:25:53.285Z,17.40
2019-06-27T04:26:39.386Z,17.40
2019-06-27T04:27:25.840Z,17.40
2019-06-27T04:28:12.412Z,17.40
2019-06-27T04:28:59.226Z,17.40
2019-06-27T04:29:45.794Z,17.40
2019-06-27T04:30:33.526Z,17.40
2019-06-27T04:31:20.073Z,17.40
2019-06-27T04:32:06.570Z,17.40
2019-06-27T04:32:53.121Z,17.40
2019-06-27T04:33:39.198Z,17.40
2019-06-27T04:34:26.858Z,17.30
2019-06-27T04:35:13.684Z,17.30
2019-06-27T04:36:00.342Z,17.30
2019-06-27T04:36:46.941Z,17.30
2019-06-27T04:37:33.449Z,17.30
2019-06-27T04:38:21.807Z,17.30
2019-06-27T04:39:08.194Z,17.40
2019-06-27T04:39:54.645Z,17.40
2019-06-27T04:40:40.943Z,17.50
2019-06-27T04:41:27.299Z,17.50
2019-06-27T04:42:13.751Z,17.40
2019-06-27T04:43:05.092Z,17.40
2019-06-27T04:43:48.213Z,17.40
2019-06-27T04:44:34.503Z,17.30
2019-06-27T04:45:21.040Z,17.40
2019-06-27T04:46:06.877Z,17.50
2019-06-27T04:46:53.157Z,17.50
2019-06-27T04:47:39.281Z,17.40
2019-06-27T04:48:25.326Z,17.40
2019-06-27T04:49:13.499Z,17.40
2019-06-27T04:49:59.727Z,17.40
2019-06-27T04:50:46.102Z,17.40
2019-06-27T04:51:32.468Z,17.40
2019-06-27T04:52:18.285Z,17.40
2019-06-27T04:53:04.654Z,17.40
2019-06-27T04:53:50.983Z,17.40
2019-06-27T04:54:36.869Z,17.50
2019-06-27T04:55:23.432Z,17.50
2019-06-27T04:56:09.816Z,17.50
2019-06-27T04:56:56.412Z,17.50
2019-06-27T04:57:42.550Z,17.60
2019-06-27T04:58:29.005Z,17.60
2019-06-27T04:59:14.799Z,17.60
2019-06-27T05:00:01.190Z,17.70
2019-06-27T05:00:47.595Z,17.70
2019-06-27T05:01:33.496Z,17.70
2019-06-27T05:02:19.464Z,17.70
2019-06-27T05:03:06.134Z,17.80
2019-06-27T05:03:52.737Z,17.80
2019-06-27T05:06:56.533Z,17.80
2019-06-27T05:07:42.796Z,17.90
2019-06-27T05:08:30.362Z,17.90
2019-06-27T05:09:16.695Z,18.00
2019-06-27T05:10:03.659Z,18.10
2019-06-27T05:10:49.621Z,18.10
2019-06-27T05:11:35.930Z,18.20
2019-06-27T05:12:22.773Z,18.20
2019-06-27T05:13:11.900Z,18.30
2019-06-27T05:14:00.317Z,18.30
2019-06-27T05:14:46.780Z,18.30
2019-06-27T05:15:33.327Z,18.40
2019-06-27T05:16:19.724Z,18.40
2019-06-27T05:17:06.004Z,18.40
2019-06-27T05:17:51.772Z,18.40
2019-06-27T05:18:37.625Z,18.50
2019-06-27T05:19:23.543Z,18.60
2019-06-27T05:20:09.417Z,18.70
2019-06-27T05:20:55.728Z,18.70
2019-06-27T05:21:42.067Z,18.70
2019-06-27T05:22:28.517Z,18.80
2019-06-27T05:23:15.032Z,18.70
2019-06-27T05:24:01.207Z,18.70
2019-06-27T05:24:47.457Z,18.70
2019-06-27T05:25:33.477Z,18.80
2019-06-27T05:26:19.580Z,18.80
2019-06-27T05:27:05.935Z,18.80
2019-06-27T05:27:52.386Z,18.80
2019-06-27T05:28:38.589Z,18.90
2019-06-27T05:29:24.806Z,18.90
2019-06-27T05:30:14.444Z,18.90
2019-06-27T05:31:00.796Z,19.00
2019-06-27T05:31:48.124Z,19.00
2019-06-27T05:32:34.480Z,19.00
2019-06-27T05:33:20.492Z,19.00
2019-06-27T05:34:07.138Z,19.10
2019-06-27T05:34:53.525Z,19.10
2019-06-27T05:35:39.764Z,19.10
2019-06-27T05:36:25.927Z,19.10
2019-06-27T05:37:12.325Z,19.00
2019-06-27T05:37:58.416Z,19.10
2019-06-27T05:38:44.529Z,19.10
2019-06-27T05:39:30.792Z,19.10
2019-06-27T05:40:17.248Z,19.10
2019-06-27T05:41:03.516Z,19.10
2019-06-27T05:41:50.684Z,19.10
2019-06-27T05:42:37.796Z,19.20
2019-06-27T05:43:23.948Z,19.20
2019-06-27T05:44:10.484Z,19.30
2019-06-27T05:44:56.699Z,19.30
2019-06-27T05:45:44.086Z,19.40
2019-06-27T05:46:30.380Z,19.40
2019-06-27T05:47:16.603Z,19.40
2019-06-27T05:48:03.083Z,19.50
2019-06-27T05:48:49.688Z,19.50
2019-06-27T05:49:35.715Z,19.50
2019-06-27T05:50:22.116Z,19.50
2019-06-27T05:51:08.520Z,19.40
2019-06-27T05:51:54.727Z,19.30
2019-06-27T05:52:40.652Z,19.40
2019-06-27T05:53:27.001Z,19.40
2019-06-27T05:54:13.158Z,19.40
2019-06-27T05:54:59.082Z,19.40
2019-06-27T05:55:45.053Z,19.40
2019-06-27T05:56:30.983Z,19.40
2019-06-27T05:57:16.952Z,19.40
2019-06-27T05:58:03.028Z,19.40
2019-06-27T05:58:51.961Z,19.30
2019-06-27T05:59:37.249Z,19.30
2019-06-27T06:00:28.772Z,19.30
2019-06-27T06:01:11.598Z,19.30
2019-06-27T06:01:57.863Z,19.30
2019-06-27T06:02:44.054Z,19.20
2019-06-27T06:03:32.326Z,19.20
2019-06-27T06:04:18.836Z,19.20
2019-06-27T06:05:06.216Z,19.40
2019-06-27T06:05:52.342Z,19.50
2019-06-27T06:06:38.588Z,19.50
2019-06-27T06:07:44.071Z,19.70
2019-06-27T06:08:31.634Z,19.80
2019-06-27T06:09:18.003Z,19.90
2019-06-27T06:10:04.230Z,20.00
2019-06-27T06:10:50.831Z,20.10
2019-06-27T06:11:37.015Z,20.10
2019-06-27T06:13:21.778Z,20.30
2019-06-27T06:14:07.880Z,20.40
2019-06-27T06:14:53.711Z,20.40
2019-06-27T06:15:39.643Z,20.40
2019-06-27T06:16:25.898Z,20.50
2019-06-27T06:17:12.703Z,20.50
2019-06-27T06:17:59.720Z,20.60
2019-06-27T06:18:46.058Z,20.60
2019-06-27T06:19:32.326Z,20.70
2019-06-27T06:20:18.869Z,20.70
2019-06-27T06:21:04.860Z,20.80
2019-06-27T06:21:52.406Z,20.90
2019-06-27T06:22:38.771Z,20.90
2019-06-27T06:23:25.227Z,20.90
2019-06-27T06:24:11.426Z,20.90
2019-06-27T06:24:58.400Z,20.90
2019-06-27T06:25:44.663Z,20.80
2019-06-27T06:26:31.077Z,20.90
2019-06-27T06:27:17.273Z,21.10
2019-06-27T06:28:03.682Z,21.10
2019-06-27T06:28:50.066Z,21.30
2019-06-27T06:29:35.919Z,21.20
2019-06-27T06:30:22.232Z,21.20
2019-06-27T06:31:08.164Z,21.10
2019-06-27T06:31:54.390Z,21.10
2019-06-27T06:32:40.756Z,21.20
2019-06-27T06:33:26.908Z,21.10
2019-06-27T06:34:13.300Z,21.20
2019-06-27T06:34:59.269Z,21.30
2019-06-27T06:35:45.678Z,21.40
2019-06-27T06:36:31.586Z,21.50
2019-06-27T06:37:17.773Z,21.70
2019-06-27T06:38:03.758Z,21.90
2019-06-27T06:38:49.959Z,21.90
2019-06-27T06:39:37.056Z,21.90
2019-06-27T06:40:23.227Z,22.00
2019-06-27T06:41:09.532Z,22.00
2019-06-27T06:41:55.742Z,21.90
2019-06-27T06:42:43.655Z,21.90
2019-06-27T06:43:30.595Z,22.00
2019-06-27T06:44:16.361Z,22.00
2019-06-27T06:45:02.573Z,22.30
2019-06-27T06:45:49.753Z,22.80
2019-06-27T06:46:36.169Z,24.00
2019-06-27T06:47:22.737Z,25.00
2019-06-27T06:48:09.052Z,26.10
2019-06-27T06:48:56.701Z,27.10
2019-06-27T06:49:42.902Z,27.90
2019-06-27T06:50:29.244Z,28.60
2019-06-27T06:51:15.539Z,29.10
2019-06-27T06:52:01.361Z,29.50
2019-06-27T06:52:47.296Z,29.80
2019-06-27T06:53:33.165Z,30.10
2019-06-27T06:54:20.339Z,30.50
2019-06-27T06:55:06.657Z,30.80
2019-06-27T06:55:52.480Z,31.10
2019-06-27T06:56:38.507Z,31.40
2019-06-27T06:57:25.046Z,31.40
2019-06-27T06:58:11.179Z,31.60
2019-06-27T06:58:57.601Z,31.90
2019-06-27T06:59:44.051Z,31.90
2019-06-27T07:00:30.273Z,31.80
2019-06-27T07:01:16.168Z,31.80
2019-06-27T07:02:04.191Z,32.10
2019-06-27T07:02:51.707Z,32.10
2019-06-27T07:03:38.276Z,32.30
2019-06-27T07:04:25.469Z,32.80
2019-06-27T07:05:14.792Z,32.80
2019-06-27T07:06:02.445Z,32.80
2019-06-27T07:06:48.597Z,32.70
2019-06-27T07:07:34.654Z,32.80
2019-06-27T07:08:20.934Z,32.80
2019-06-27T07:09:07.229Z,32.80
2019-06-27T07:09:53.700Z,32.80
2019-06-27T07:10:39.593Z,33.30
2019-06-27T07:11:26.484Z,33.40
2019-06-27T07:12:13.041Z,33.50
2019-06-27T07:12:59.119Z,33.40
2019-06-27T07:13:45.000Z,33.70
2019-06-27T07:14:30.983Z,34.10
2019-06-27T07:15:17.219Z,34.20
2019-06-27T07:16:04.089Z,34.30
2019-06-27T07:16:49.957Z,34.50
2019-06-27T07:17:36.923Z,34.70
2019-06-27T07:18:23.186Z,35.00
2019-06-27T07:19:09.567Z,35.10
2019-06-27T07:19:57.588Z,35.30
2019-06-27T07:20:43.444Z,35.50
2019-06-27T07:21:30.860Z,35.40
2019-06-27T07:22:17.226Z,35.50
2019-06-27T07:23:03.170Z,35.70
2019-06-27T07:23:52.423Z,35.80
2019-06-27T07:24:38.847Z,35.70
2019-06-27T07:25:24.984Z,35.70
2019-06-27T07:26:11.308Z,35.20
2019-06-27T07:26:57.624Z,35.40
2019-06-27T07:27:43.978Z,35.60
2019-06-27T07:28:30.048Z,35.60
2019-06-27T07:29:16.206Z,35.50
2019-06-27T07:30:02.212Z,35.70
2019-06-27T07:30:48.516Z,36.00
2019-06-27T07:31:34.460Z,36.30
2019-06-27T07:32:20.968Z,36.50
2019-06-27T07:33:10.164Z,36.60
2019-06-27T07:33:55.081Z,36.70
2019-06-27T07:34:42.639Z,36.70
2019-06-27T07:35:28.872Z,36.80
2019-06-27T07:36:15.221Z,36.90
2019-06-27T07:37:01.268Z,37.10
2019-06-27T07:37:47.551Z,37.30
2019-06-27T07:38:33.599Z,37.30
2019-06-27T07:39:19.902Z,37.20
2019-06-27T07:40:06.595Z,37.30
2019-06-27T07:40:53.779Z,37.20
2019-06-27T07:41:40.168Z,37.30
2019-06-27T07:42:26.503Z,37.60
2019-06-27T07:43:13.001Z,37.70
2019-06-27T07:43:59.050Z,38.00
2019-06-27T07:44:45.205Z,38.10
2019-06-27T07:45:32.255Z,38.00
2019-06-27T07:46:25.195Z,38.20
2019-06-27T07:47:06.275Z,38.20
2019-06-27T07:47:52.208Z,38.10
2019-06-27T07:48:38.454Z,38.10
2019-06-27T07:49:24.819Z,38.30
2019-06-27T07:50:13.131Z,38.30
2019-06-27T07:50:59.624Z,38.10
2019-06-27T07:51:45.698Z,38.20
2019-06-27T07:52:32.037Z,38.50
2019-06-27T07:53:17.923Z,38.60
2019-06-27T07:54:03.705Z,38.70
2019-06-27T07:54:49.499Z,38.70
2019-06-27T07:55:35.966Z,38.70
2019-06-27T07:56:22.262Z,38.70
2019-06-27T07:57:08.093Z,38.90
2019-06-27T07:57:53.991Z,38.60
2019-06-27T07:58:40.269Z,38.60
2019-06-27T07:59:26.628Z,38.50
2019-06-27T08:00:12.710Z,38.50
2019-06-27T08:00:59.092Z,38.40
2019-06-27T08:01:45.067Z,38.80
2019-06-27T08:02:31.132Z,39.00
2019-06-27T08:03:17.259Z,39.00
2019-06-27T08:04:03.841Z,39.10
2019-06-27T08:04:50.347Z,39.20
2019-06-27T08:05:37.210Z,39.10
2019-06-27T08:06:23.493Z,39.30
2019-06-27T08:07:09.527Z,39.40
2019-06-27T08:07:55.799Z,39.20
2019-06-27T08:08:42.012Z,39.00
2019-06-27T08:09:28.223Z,39.20
2019-06-27T08:10:14.444Z,39.30
2019-06-27T08:11:00.387Z,39.20
2019-06-27T08:11:46.557Z,39.20
2019-06-27T08:12:32.703Z,39.30
2019-06-27T08:13:24.921Z,39.30
2019-06-27T08:14:11.077Z,39.40
2019-06-27T08:14:57.411Z,39.60
2019-06-27T08:15:43.177Z,39.60
2019-06-27T08:16:29.474Z,39.80
2019-06-27T08:17:15.565Z,39.80
2019-06-27T08:18:02.782Z,39.90
2019-06-27T08:18:49.267Z,39.90
2019-06-27T08:19:35.531Z,39.50
2019-06-27T08:20:21.690Z,39.60
2019-06-27T08:21:07.548Z,39.50
2019-06-27T08:21:54.606Z,39.40
2019-06-27T08:22:40.749Z,39.70
2019-06-27T08:23:40.517Z,39.70
2019-06-27T08:24:15.263Z,40.10
2019-06-27T08:25:01.429Z,40.40
2019-06-27T08:25:47.273Z,40.60
2019-06-27T08:26:33.061Z,40.70
2019-06-27T08:27:19.741Z,40.60
2019-06-27T08:28:05.898Z,40.50
2019-06-27T08:28:51.884Z,40.40
2019-06-27T08:29:38.225Z,40.00
2019-06-27T08:30:25.526Z,39.90
2019-06-27T08:31:12.970Z,40.20
2019-06-27T08:31:58.974Z,40.30
2019-06-27T08:32:45.350Z,40.70
2019-06-27T08:33:31.890Z,40.90
2019-06-27T08:34:18.365Z,40.50
2019-06-27T08:35:05.405Z,40.60
2019-06-27T08:35:51.818Z,41.10
2019-06-27T08:36:37.812Z,41.00
2019-06-27T08:37:24.702Z,41.20
2019-06-27T08:38:11.357Z,41.30
2019-06-27T08:38:57.886Z,41.40
2019-06-27T08:39:43.934Z,41.40
2019-06-27T08:40:30.526Z,41.50
2019-06-27T08:41:17.020Z,41.40
2019-06-27T08:42:05.032Z,41.10
2019-06-27T08:42:51.448Z,41.20
2019-06-27T08:43:37.404Z,41.50
2019-06-27T08:44:23.363Z,41.00
2019-06-27T08:45:09.865Z,41.00
2019-06-27T08:45:56.202Z,41.40
2019-06-27T08:46:42.163Z,41.50
2019-06-27T08:47:29.471Z,41.20
2019-06-27T08:48:15.706Z,41.40
2019-06-27T08:49:02.020Z,41.80
2019-06-27T08:49:49.059Z,41.50
2019-06-27T08:50:35.334Z,41.60
2019-06-27T08:51:21.472Z,41.80
2019-06-27T08:52:07.271Z,41.60
2019-06-27T08:52:53.092Z,41.70
2019-06-27T08:53:39.045Z,41.50
2019-06-27T08:54:25.292Z,41.80
2019-06-27T08:55:12.064Z,41.70
2019-06-27T08:55:58.171Z,41.70
2019-06-27T08:56:44.008Z,41.70
2019-06-27T08:57:30.392Z,41.70
2019-06-27T08:58:16.413Z,41.70
2019-06-27T08:59:03.825Z,41.70
2019-06-27T08:59:50.200Z,41.80
2019-06-27T09:00:36.683Z,41.80
2019-06-27T09:01:23.066Z,41.60
2019-06-27T09:02:09.713Z,41.30
2019-06-27T09:02:56.222Z,41.40
2019-06-27T09:03:42.650Z,41.60
2019-06-27T09:04:28.806Z,41.80
2019-06-27T09:05:15.549Z,42.00
2019-06-27T09:06:01.964Z,42.10
2019-06-27T09:06:48.256Z,42.30
2019-06-27T09:07:34.443Z,42.10
2019-06-27T09:08:21.057Z,42.20
2019-06-27T09:09:07.146Z,42.20
2019-06-27T09:09:53.066Z,42.20
2019-06-27T09:10:39.208Z,42.20
2019-06-27T09:11:26.480Z,42.00
2019-06-27T09:12:12.682Z,42.40
2019-06-27T09:12:58.955Z,42.60
2019-06-27T09:13:45.160Z,42.10
2019-06-27T09:14:31.087Z,42.50
2019-06-27T09:15:17.056Z,42.40
2019-06-27T09:16:04.338Z,42.30
2019-06-27T09:16:50.780Z,42.20
2019-06-27T09:17:37.203Z,42.10
2019-06-27T09:18:23.801Z,42.20
2019-06-27T09:19:09.838Z,42.50
2019-06-27T09:19:56.234Z,42.10
2019-06-27T09:20:42.358Z,42.10
2019-06-27T09:21:28.778Z,42.00
2019-06-27T09:22:15.185Z,42.10
2019-06-27T09:23:01.514Z,41.90
2019-06-27T09:23:47.799Z,42.10
2019-06-27T09:24:33.799Z,42.10
2019-06-27T09:25:20.868Z,41.70
2019-06-27T09:26:09.091Z,41.90
2019-06-27T09:26:55.089Z,41.50
2019-06-27T09:27:41.048Z,41.80
2019-06-27T09:28:27.070Z,42.00
2019-06-27T09:29:13.666Z,42.00
2019-06-27T09:29:59.880Z,42.00
2019-06-27T09:30:46.408Z,42.10
2019-06-27T09:31:32.659Z,42.00
2019-06-27T09:32:25.540Z,42.00
2019-06-27T09:33:07.669Z,41.10
2019-06-27T09:33:55.127Z,41.20
2019-06-27T09:34:41.506Z,41.60
2019-06-27T09:35:27.736Z,41.70
2019-06-27T09:36:13.990Z,41.40
2019-06-27T09:37:00.319Z,41.00
2019-06-27T09:37:46.540Z,41.40
2019-06-27T09:38:32.869Z,41.30
2019-06-27T09:39:18.977Z,41.40
2019-06-27T09:40:05.723Z,41.70
2019-06-27T09:40:52.051Z,42.00
2019-06-27T09:41:38.333Z,42.20
2019-06-27T09:42:24.672Z,42.10
2019-06-27T09:43:10.480Z,42.10
2019-06-27T09:43:56.357Z,42.30
2019-06-27T09:44:42.667Z,42.40
2019-06-27T09:45:28.863Z,42.40
2019-06-27T09:46:15.134Z,42.40
2019-06-27T09:47:01.654Z,42.10
2019-06-27T09:47:47.530Z,41.80
2019-06-27T09:48:33.515Z,41.80
2019-06-27T09:49:19.991Z,41.80
2019-06-27T09:50:06.800Z,41.40
2019-06-27T09:50:55.124Z,41.70
2019-06-27T09:51:41.471Z,41.90
2019-06-27T09:52:27.506Z,41.50
2019-06-27T09:53:14.690Z,41.30
2019-06-27T09:54:00.958Z,41.10
2019-06-27T09:54:47.283Z,41.20
2019-06-27T09:55:33.264Z,41.40
2019-06-27T09:56:19.588Z,41.20
2019-06-27T09:57:05.616Z,41.20
2019-06-27T09:57:51.888Z,40.90
2019-06-27T09:58:37.948Z,41.10
2019-06-27T09:59:24.518Z,41.20
2019-06-27T10:00:11.910Z,41.10
2019-06-27T10:00:58.117Z,41.10
2019-06-27T10:01:44.323Z,41.20
2019-06-27T10:02:40.997Z,41.20
2019-06-27T10:03:18.453Z,41.10
2019-06-27T10:04:04.413Z,41.20
2019-06-27T10:04:50.384Z,41.10
2019-06-27T10:05:36.230Z,40.90
2019-06-27T10:06:26.094Z,40.80
2019-06-27T10:07:12.009Z,40.70
2019-06-27T10:07:58.080Z,40.70
2019-06-27T10:08:43.907Z,41.00
2019-06-27T10:09:29.740Z,41.20
2019-06-27T10:10:15.591Z,41.00